Time;durP1;ratioP1;P1;durP2;ratioP2;P2;SDS_P1;SDS_P2;PMS_P1;PMS_P2;Temp;Humidity;BMP_temperature;BMP_pressure;BME280_temperature;BME280_humidity;BME280_pressure;Samples;Min_cycle;Max_cycle;Signal;HPM_P1;HPM_P2
2021/12/26 00:00:50;;;;;;;7.43;4.05;;;;;;;1.18;81.74;99873.31;5101657;28;20024;-68
2021/12/26 00:03:15;;;;;;;6.75;3.63;;;;;;;1.22;82.00;99869.56;5087810;28;20051;-67
2021/12/26 00:05:41;;;;;;;5.25;3.90;;;;;;;1.16;82.16;99863.78;5102497;28;20024;-69
2021/12/26 00:08:07;;;;;;;7.35;4.22;;;;;;;1.17;82.45;99865.47;5093549;28;20447;-67
2021/12/26 00:10:33;;;;;;;6.38;3.67;;;;;;;1.11;82.80;99866.69;5096695;28;20020;-68
2021/12/26 00:12:59;;;;;;;7.55;3.97;;;;;;;1.12;82.45;99868.38;5095781;27;20048;-67
2021/12/26 00:15:25;;;;;;;7.50;4.03;;;;;;;1.12;82.37;99876.31;5098696;28;20130;-68
2021/12/26 00:17:51;;;;;;;8.30;4.03;;;;;;;1.15;81.93;99883.19;5094327;28;20035;-68
2021/12/26 00:20:18;;;;;;;7.93;4.00;;;;;;;1.16;81.50;99883.09;5103853;28;20039;-68
2021/12/26 00:22:44;;;;;;;6.07;3.53;;;;;;;1.09;81.99;99880.88;5095776;28;20073;-68
2021/12/26 00:25:11;;;;;;;8.63;4.22;;;;;;;1.05;82.14;99869.66;5090173;28;20476;-67
2021/12/26 00:27:37;;;;;;;6.10;3.47;;;;;;;1.09;82.38;99871.19;5106132;28;20058;-69
2021/12/26 00:30:10;;;;;;;7.85;3.80;;;;;;;1.14;80.86;99878.84;5107948;27;20063;-67
2021/12/26 00:32:36;;;;;;;7.65;3.80;;;;;;;1.09;81.27;99876.47;5101988;28;20038;-67
2021/12/26 00:35:02;;;;;;;6.10;3.50;;;;;;;1.08;81.54;99876.56;5090631;28;20044;-68
2021/12/26 00:37:27;;;;;;;7.13;3.65;;;;;;;1.06;81.10;99887.22;5094553;28;20050;-68
2021/12/26 00:39:53;;;;;;;5.15;3.30;;;;;;;1.02;81.26;99880.41;5096029;28;20044;-66
2021/12/26 00:42:19;;;;;;;7.10;3.75;;;;;;;0.90;81.65;99864.41;5089941;28;20154;-68
2021/12/26 00:44:44;;;;;;;5.20;3.60;;;;;;;1.00;81.86;99878.78;5104825;28;20523;-68
2021/12/26 00:47:12;;;;;;;6.15;3.30;;;;;;;1.00;81.44;99884.91;5094070;28;20028;-68
2021/12/26 00:49:38;;;;;;;6.22;3.80;;;;;;;1.00;81.47;99881.44;5094091;28;20756;-66
2021/12/26 00:52:05;;;;;;;8.43;3.88;;;;;;;0.86;80.24;99862.84;5105692;28;20050;-68
2021/12/26 00:54:31;;;;;;;6.75;3.72;;;;;;;1.00;79.18;99892.00;5099023;28;20079;-67
2021/12/26 00:56:57;;;;;;;6.53;3.75;;;;;;;0.93;79.49;99886.19;5089652;28;20414;-68
2021/12/26 00:59:24;;;;;;;6.75;3.17;;;;;;;0.95;79.87;99891.38;5103076;28;20040;-66
2021/12/26 01:01:49;;;;;;;6.57;3.25;;;;;;;0.95;80.08;99894.88;5099089;28;20114;-68
2021/12/26 01:04:15;;;;;;;6.55;3.53;;;;;;;0.90;80.26;99885.53;5094643;28;20154;-68
2021/12/26 01:06:41;;;;;;;4.30;3.00;;;;;;;0.99;79.61;99906.09;5100236;28;20052;-68
2021/12/26 01:09:10;;;;;;;5.68;3.20;;;;;;;1.01;79.11;99906.88;5101525;28;20027;-68
2021/12/26 01:11:39;;;;;;;6.63;3.03;;;;;;;1.00;78.48;99903.38;5093432;28;20039;-67
2021/12/26 01:14:08;;;;;;;7.50;3.60;;;;;;;1.03;77.58;99907.66;5091817;28;20024;-69
2021/12/26 01:16:34;;;;;;;5.97;3.22;;;;;;;1.03;75.98;99908.50;5100451;28;20035;-68
2021/12/26 01:19:06;;;;;;;7.38;3.20;;;;;;;0.97;74.66;99900.09;5091638;28;20032;-69
2021/12/26 01:21:33;;;;;;;5.43;3.17;;;;;;;0.98;74.19;99907.91;5094047;28;20112;-68
2021/12/26 01:24:01;;;;;;;7.60;3.05;;;;;;;0.98;73.40;99905.28;5093238;28;20465;-67
2021/12/26 01:26:28;;;;;;;5.38;3.08;;;;;;;1.03;72.88;99913.78;5104510;28;20016;-67
2021/12/26 01:28:54;;;;;;;4.75;2.90;;;;;;;0.99;72.66;99909.59;5104455;28;20046;-68
2021/12/26 01:31:20;;;;;;;6.15;3.10;;;;;;;0.97;73.23;99900.91;5091671;28;20031;-68
2021/12/26 01:33:52;;;;;;;5.63;2.80;;;;;;;1.01;74.02;99905.09;5105058;28;20051;-67
2021/12/26 01:36:18;;;;;;;5.03;2.88;;;;;;;0.95;74.78;99894.88;5097383;28;20040;-68
2021/12/26 01:38:44;;;;;;;11.48;3.78;;;;;;;1.01;74.89;99905.09;5099454;28;20127;-68
2021/12/26 01:41:10;;;;;;;8.07;3.58;;;;;;;0.95;74.21;99894.88;5105565;28;20380;-67
2021/12/26 01:43:41;;;;;;;5.63;3.20;;;;;;;0.99;73.25;99908.75;5099929;28;20515;-67
2021/12/26 01:46:08;;;;;;;6.05;2.88;;;;;;;1.00;72.19;99905.19;5097192;28;20030;-68
2021/12/26 01:48:34;;;;;;;7.10;2.95;;;;;;;0.96;71.92;99890.44;5090336;28;20502;-66
2021/12/26 01:50:59;;;;;;;6.00;3.28;;;;;;;0.92;70.64;99879.22;5100143;28;20063;-68
2021/12/26 01:53:34;;;;;;;6.35;3.00;;;;;;;0.98;69.87;99893.84;5090390;28;20074;-69
2021/12/26 01:56:00;;;;;;;8.18;3.00;;;;;;;0.92;69.11;99875.72;5106308;28;20042;-68
2021/12/26 01:58:29;;;;;;;6.50;3.08;;;;;;;0.94;67.93;99879.13;5092836;28;20640;-68
2021/12/26 02:01:04;;;;;;;7.47;2.80;;;;;;;0.91;66.73;99874.88;5097924;28;20148;-67
2021/12/26 02:03:30;;;;;;;5.30;2.67;;;;;;;0.91;66.72;99877.53;5092932;28;20610;-66
2021/12/26 02:05:56;;;;;;;5.80;2.72;;;;;;;0.90;66.35;99875.78;5099103;28;20099;-68
2021/12/26 02:08:22;;;;;;;7.15;3.03;;;;;;;0.85;65.90;99863.81;5094189;28;20028;-66
2021/12/26 02:10:47;;;;;;;5.13;2.80;;;;;;;0.85;65.55;99859.38;5098364;28;20043;-68
2021/12/26 02:13:14;;;;;;;5.65;2.88;;;;;;;0.89;65.36;99868.81;5091454;28;20168;-68
2021/12/26 02:15:40;;;;;;;6.30;3.00;;;;;;;0.88;65.00;99858.34;5099027;28;20106;-68
2021/12/26 02:18:07;;;;;;;6.05;2.65;;;;;;;0.86;65.03;99863.72;5095316;28;20162;-67
2021/12/26 02:21:11;;;;;;;4.68;2.42;;;;;;;0.88;64.62;99861.00;5088881;28;20849;-70
2021/12/26 02:24:14;;;;;;;7.65;2.67;;;;;;;0.85;63.90;99862.03;5101535;28;20042;-70
2021/12/26 02:28:36;;;;;;;4.05;2.60;;;;;;;0.88;63.28;99861.84;5097706;28;20474;-70
2021/12/26 02:31:02;;;;;;;4.88;2.58;;;;;;;0.86;62.88;99857.56;5101590;28;20024;-70
2021/12/26 02:33:28;;;;;;;7.45;2.47;;;;;;;0.75;62.79;99831.81;5094821;28;20088;-70
2021/12/26 02:35:53;;;;;;;6.93;2.90;;;;;;;0.81;63.41;99854.34;5100784;28;20123;-69
2021/12/26 02:38:20;;;;;;;5.32;2.38;;;;;;;0.77;63.43;99851.03;5098360;28;20059;-70
2021/12/26 02:40:47;;;;;;;5.78;2.72;;;;;;;0.78;63.82;99859.81;5096894;28;20676;-71
2021/12/26 02:43:16;;;;;;;7.80;2.60;;;;;;;0.72;64.02;99850.44;5095795;28;20026;-70
2021/12/26 02:45:42;;;;;;;4.53;2.03;;;;;;;0.74;63.85;99856.47;5095523;28;20161;-68
2021/12/26 02:48:09;;;;;;;9.48;2.53;;;;;;;0.65;64.54;99848.22;5096486;28;20103;-67
2021/12/26 02:50:35;;;;;;;5.93;2.60;;;;;;;0.74;65.20;99869.66;5093886;28;20056;-67
2021/12/26 02:53:03;;;;;;;6.10;2.33;;;;;;;0.65;65.58;99857.00;5087467;28;20522;-69
2021/12/26 02:55:29;;;;;;;7.05;2.90;;;;;;;0.71;65.99;99872.47;5094761;28;20544;-68
2021/12/26 02:57:59;;;;;;;5.82;2.78;;;;;;;0.72;65.44;99876.84;5096433;28;20032;-68
2021/12/26 03:00:28;;;;;;;6.57;2.22;;;;;;;0.70;65.86;99872.56;5098699;28;20398;-68
2021/12/26 03:02:56;;;;;;;6.22;2.47;;;;;;;0.71;65.98;99871.63;5095532;28;20653;-69
2021/12/26 03:05:26;;;;;;;4.72;2.20;;;;;;;0.70;66.49;99873.41;5091947;28;20038;-68
2021/12/26 03:07:51;;;;;;;7.13;2.25;;;;;;;0.69;66.60;99878.78;5094379;28;20430;-68
2021/12/26 03:10:24;;;;;;;7.90;2.78;;;;;;;0.68;66.51;99885.81;5093202;28;20016;-68
2021/12/26 03:12:57;;;;;;;5.93;2.45;;;;;;;0.58;66.02;99870.59;5095906;28;20042;-68
2021/12/26 03:15:25;;;;;;;5.30;2.45;;;;;;;0.63;66.37;99881.75;5085510;28;20482;-68
2021/12/26 03:17:52;;;;;;;7.05;2.45;;;;;;;0.65;66.73;99885.16;5093510;28;20069;-68
2021/12/26 03:20:20;;;;;;;5.85;2.80;;;;;;;0.64;67.14;99884.31;5096441;28;20534;-67
2021/12/26 03:22:46;;;;;;;4.20;2.30;;;;;;;0.51;67.58;99856.88;5094326;28;20024;-67
2021/12/26 03:25:15;;;;;;;3.92;2.30;;;;;;;0.62;66.77;99878.28;5096813;28;20031;-67
2021/12/26 03:27:40;;;;;;;6.28;2.60;;;;;;;0.54;67.30;99862.00;5094098;28;20054;-68
2021/12/26 03:30:08;;;;;;;4.57;2.30;;;;;;;0.57;67.65;99868.88;5091013;28;20027;-67
2021/12/26 03:32:33;;;;;;;5.65;2.55;;;;;;;0.43;68.64;99848.56;5092082;28;20399;-68
2021/12/26 03:34:59;;;;;;;9.20;2.78;;;;;;;0.54;68.28;99875.19;5093609;28;20031;-68
2021/12/26 03:37:24;;;;;;;6.15;2.55;;;;;;;0.46;69.06;99852.78;5093129;28;20024;-68
2021/12/26 03:39:50;;;;;;;4.45;2.35;;;;;;;0.49;70.02;99868.47;5102335;28;20023;-68
2021/12/26 03:42:16;;;;;;;5.28;2.28;;;;;;;0.48;69.98;99867.59;5094962;28;20032;-68
2021/12/26 03:44:41;;;;;;;5.57;2.60;;;;;;;0.47;69.76;99868.53;5100674;28;20032;-67
2021/12/26 03:47:07;;;;;;;6.35;2.65;;;;;;;0.44;69.66;99862.56;5100131;28;20088;-68
2021/12/26 03:49:32;;;;;;;6.53;2.70;;;;;;;0.46;70.07;99871.25;5097016;28;20211;-68
2021/12/26 03:51:58;;;;;;;6.25;2.40;;;;;;;0.44;69.69;99873.97;5095608;28;20124;-67
2021/12/26 03:54:23;;;;;;;6.25;2.90;;;;;;;0.39;69.89;99862.84;5097610;28;20699;-68
2021/12/26 03:56:49;;;;;;;7.95;2.95;;;;;;;0.33;70.36;99867.59;5094906;28;20051;-68
2021/12/26 03:59:14;;;;;;;6.63;2.50;;;;;;;0.39;70.38;99876.03;5101818;28;20044;-68
2021/12/26 04:01:40;;;;;;;3.97;2.10;;;;;;;0.25;70.47;99846.88;5099749;28;20096;-68
2021/12/26 04:04:06;;;;;;;7.03;2.63;;;;;;;0.29;71.21;99860.78;5091696;28;20026;-67
2021/12/26 04:06:31;;;;;;;6.13;2.03;;;;;;;0.34;70.36;99875.41;5098823;28;20035;-67
2021/12/26 04:08:57;;;;;;;4.30;2.30;;;;;;;0.39;70.26;99888.34;5093968;28;20028;-68
2021/12/26 04:11:24;;;;;;;5.93;2.90;;;;;;;0.35;70.90;99877.09;5098371;28;20040;-68
2021/12/26 04:13:50;;;;;;;7.20;2.58;;;;;;;0.34;70.00;99875.41;5097691;28;20024;-68
2021/12/26 04:16:15;;;;;;;6.78;2.20;;;;;;;0.35;69.26;99878.91;5095443;28;20581;-68
2021/12/26 04:18:41;;;;;;;6.93;2.97;;;;;;;0.27;68.96;99883.72;5100806;28;20031;-66
2021/12/26 04:21:06;;;;;;;5.25;2.25;;;;;;;0.35;68.01;99900.00;5102044;28;20056;-67
2021/12/26 04:23:33;;;;;;;4.22;2.30;;;;;;;0.34;68.17;99901.78;5096137;28;20038;-68
2021/12/26 04:25:59;;;;;;;6.85;2.00;;;;;;;0.28;66.68;99899.47;5099189;28;20475;-67
2021/12/26 04:28:25;;;;;;;4.78;2.55;;;;;;;0.32;66.18;99906.28;5098404;28;20032;-68
2021/12/26 04:30:51;;;;;;;5.75;2.25;;;;;;;0.32;66.63;99908.91;5096559;28;20051;-66
2021/12/26 04:33:16;;;;;;;5.07;2.15;;;;;;;0.35;66.55;99924.56;5099162;28;20027;-67
2021/12/26 04:35:42;;;;;;;7.15;2.50;;;;;;;0.33;66.30;99929.09;5094425;28;20039;-68
2021/12/26 04:38:08;;;;;;;4.90;2.33;;;;;;;0.35;65.70;99934.28;5099279;28;20031;-68
2021/12/26 04:40:33;;;;;;;4.85;1.67;;;;;;;0.23;64.54;99919.97;5097883;28;20069;-68
2021/12/26 04:42:59;;;;;;;4.57;2.60;;;;;;;0.31;64.04;99933.59;5092494;28;20028;-68
2021/12/26 04:45:25;;;;;;;5.60;2.10;;;;;;;0.32;64.14;99927.38;5098972;28;20016;-67
2021/12/26 04:47:52;;;;;;;5.22;2.42;;;;;;;0.35;64.38;99937.75;5092926;28;20024;-68
2021/12/26 04:50:23;;;;;;;5.50;2.40;;;;;;;0.37;63.47;99942.94;5092658;28;20024;-68
2021/12/26 04:52:50;;;;;;;6.07;2.65;;;;;;;0.39;63.69;99941.97;5098752;28;20023;-68
2021/12/26 04:55:18;;;;;;;5.18;2.20;;;;;;;0.41;63.45;99949.75;5091917;28;20032;-68
2021/12/26 04:57:45;;;;;;;5.65;2.30;;;;;;;0.38;63.85;99945.50;5091418;28;20023;-67
2021/12/26 05:00:15;;;;;;;4.57;2.22;;;;;;;0.40;63.45;99954.22;5095921;28;20034;-67
2021/12/26 05:02:41;;;;;;;6.00;2.35;;;;;;;0.39;62.08;99952.50;5095972;28;20375;-67
2021/12/26 05:05:08;;;;;;;5.00;1.98;;;;;;;0.33;61.56;99949.34;5097784;28;20031;-68
2021/12/26 05:07:35;;;;;;;3.80;2.10;;;;;;;0.35;62.25;99950.94;5094949;28;20039;-67
2021/12/26 05:10:01;;;;;;;6.10;1.98;;;;;;;0.36;62.38;99957.09;5095648;28;20389;-66
2021/12/26 05:12:26;;;;;;;6.97;2.20;;;;;;;0.37;62.88;99957.00;5098243;28;20028;-68
2021/12/26 05:14:52;;;;;;;5.22;2.85;;;;;;;0.32;63.02;99960.81;5095709;28;20106;-67
2021/12/26 05:17:18;;;;;;;4.70;2.35;;;;;;;0.35;63.41;99969.41;5101104;28;20031;-68
2021/12/26 05:19:44;;;;;;;6.70;2.50;;;;;;;0.30;63.08;99962.66;5095924;28;20020;-68
2021/12/26 05:22:09;;;;;;;9.57;3.38;;;;;;;0.29;63.58;99955.69;5097728;28;20024;-68
2021/12/26 05:24:35;;;;;;;6.93;2.97;;;;;;;0.37;63.78;99975.47;5099105;28;20502;-68
2021/12/26 05:27:01;;;;;;;6.50;2.42;;;;;;;0.28;63.63;99961.88;5092896;28;20031;-67
2021/12/26 05:29:26;;;;;;;9.25;2.72;;;;;;;0.35;63.77;99976.47;5098938;28;20032;-67
2021/12/26 05:31:55;;;;;;;6.15;2.70;;;;;;;0.33;64.07;99973.06;5095176;28;20044;-67
2021/12/26 05:34:20;;;;;;;6.15;2.78;;;;;;;0.28;64.50;99975.06;5099396;28;20035;-67
2021/12/26 05:36:47;;;;;;;7.25;2.95;;;;;;;0.21;65.19;99969.28;5096747;28;20036;-67
2021/12/26 05:39:12;;;;;;;6.00;3.22;;;;;;;0.34;66.43;99985.31;5091871;28;20495;-68
2021/12/26 05:41:39;;;;;;;7.60;3.15;;;;;;;0.33;66.82;100004.72;5100747;28;20023;-67
2021/12/26 05:44:05;;;;;;;8.27;2.92;;;;;;;0.29;66.69;99997.91;5092947;28;20032;-68
2021/12/26 05:46:30;;;;;;;4.93;2.22;;;;;;;0.22;67.05;99997.34;5099077;28;20028;-67
2021/12/26 05:48:55;;;;;;;5.03;2.70;;;;;;;0.26;68.00;100003.31;5099581;28;20031;-67
2021/12/26 05:51:21;;;;;;;6.07;2.63;;;;;;;0.11;68.41;99985.63;5096277;28;20040;-67
2021/12/26 05:53:46;;;;;;;4.65;2.42;;;;;;;0.16;69.48;100010.81;5093430;28;20027;-67
2021/12/26 05:56:12;;;;;;;7.82;2.97;;;;;;;0.18;69.58;100010.75;5091966;28;20028;-68
2021/12/26 05:58:39;;;;;;;5.68;2.42;;;;;;;0.14;70.00;100006.56;5096758;28;20399;-67
2021/12/26 06:01:05;;;;;;;6.10;2.92;;;;;;;0.14;70.11;100019.75;5096807;28;20023;-68
2021/12/26 06:03:30;;;;;;;4.88;2.47;;;;;;;0.16;71.25;100029.28;5093861;28;20081;-68
2021/12/26 06:05:56;;;;;;;6.55;2.83;;;;;;;0.12;71.84;100022.47;5095790;28;20081;-67
2021/12/26 06:08:21;;;;;;;5.90;2.97;;;;;;;0.07;71.93;100021.84;5093145;28;20036;-67
2021/12/26 06:10:47;;;;;;;6.25;2.78;;;;;;;0.07;72.46;100021.00;5095162;28;20039;-68
2021/12/26 06:13:13;;;;;;;8.27;2.90;;;;;;;0.09;72.06;100034.97;5095815;28;20479;-67
2021/12/26 06:15:39;;;;;;;6.45;2.90;;;;;;;0.03;72.59;100028.19;5093271;28;20034;-68
2021/12/26 06:18:04;;;;;;;9.27;2.88;;;;;;;0.07;73.45;100036.81;5097577;28;20032;-67
2021/12/26 06:20:29;;;;;;;8.50;2.90;;;;;;;0.02;74.19;100042.31;5093312;28;20109;-67
2021/12/26 06:22:55;;;;;;;6.80;3.22;;;;;;;-0.03;75.21;100033.78;5097272;28;20028;-67
2021/12/26 06:25:20;;;;;;;7.68;3.47;;;;;;;-0.03;75.89;100055.72;5095900;28;20146;-67
2021/12/26 06:27:46;;;;;;;6.72;3.33;;;;;;;-0.09;75.87;100037.56;5097581;28;20039;-68
2021/12/26 06:30:13;;;;;;;6.85;3.33;;;;;;;-0.07;75.99;100048.88;5099610;28;20043;-68
2021/12/26 06:32:38;;;;;;;5.30;2.67;;;;;;;-0.08;76.15;100051.59;5098876;28;20387;-68
2021/12/26 06:35:05;;;;;;;7.85;3.05;;;;;;;-0.16;76.08;100045.88;5099534;28;20027;-68
2021/12/26 06:37:30;;;;;;;7.18;3.33;;;;;;;-0.14;76.26;100047.50;5098038;28;20471;-67
2021/12/26 06:39:59;;;;;;;5.93;3.30;;;;;;;-0.27;76.94;100046.38;5094655;28;20110;-68
2021/12/26 06:42:25;;;;;;;7.30;3.35;;;;;;;-0.18;76.98;100060.88;5097363;28;20503;-67
2021/12/26 06:44:50;;;;;;;6.97;2.90;;;;;;;-0.21;76.92;100061.91;5097072;28;20504;-70
2021/12/26 06:47:17;;;;;;;9.52;3.42;;;;;;;-0.36;77.16;100044.19;5094831;28;20077;-70
2021/12/26 06:49:43;;;;;;;9.45;3.20;;;;;;;-0.24;77.01;100066.44;5096489;28;20100;-71
2021/12/26 06:52:09;;;;;;;9.98;3.67;;;;;;;-0.31;77.22;100065.91;5096788;28;20044;-70
2021/12/26 06:54:36;;;;;;;9.02;3.75;;;;;;;-0.29;77.16;100071.09;5096994;28;20035;-71
2021/12/26 06:57:03;;;;;;;12.20;5.25;;;;;;;-0.28;77.83;100071.03;5098578;28;20051;-71
2021/12/26 06:59:29;;;;;;;13.68;5.30;;;;;;;-0.32;77.30;100068.59;5093892;28;20040;-71
2021/12/26 07:01:55;;;;;;;13.23;5.68;;;;;;;-0.30;76.56;100072.00;5095209;28;20023;-68
2021/12/26 07:04:20;;;;;;;17.52;5.45;;;;;;;-0.46;76.54;100055.22;5102827;28;20041;-67
2021/12/26 07:06:46;;;;;;;10.48;4.75;;;;;;;-0.33;74.75;100077.41;5092900;28;20036;-68
2021/12/26 07:09:12;;;;;;;10.32;3.95;;;;;;;-0.34;74.49;100078.34;5093834;28;20032;-68
2021/12/26 07:11:37;;;;;;;8.27;3.40;;;;;;;-0.34;73.69;100080.97;5102931;28;20107;-68
2021/12/26 07:14:03;;;;;;;8.20;3.15;;;;;;;-0.38;73.49;100074.16;5100175;28;20056;-68
2021/12/26 07:16:29;;;;;;;5.82;3.17;;;;;;;-0.38;74.35;100077.63;5094604;28;20060;-66
2021/12/26 07:18:54;;;;;;;4.97;2.50;;;;;;;-0.33;74.39;100090.59;5102000;28;20020;-68
2021/12/26 07:21:19;;;;;;;8.25;2.50;;;;;;;-0.32;75.00;100087.88;5105735;28;20016;-67
2021/12/26 07:23:45;;;;;;;8.23;2.50;;;;;;;-0.41;74.77;100074.31;5089283;28;20026;-66
2021/12/26 07:26:11;;;;;;;5.78;2.70;;;;;;;-0.32;75.17;100093.16;5097350;28;20555;-68
2021/12/26 07:28:36;;;;;;;7.00;3.13;;;;;;;-0.34;75.85;100092.38;5090516;28;20678;-68
2021/12/26 07:31:03;;;;;;;5.82;3.00;;;;;;;-0.33;75.65;100093.22;5091926;28;20052;-67
2021/12/26 07:33:28;;;;;;;7.68;2.85;;;;;;;-0.38;75.95;100098.69;5108051;28;20032;-67
2021/12/26 07:35:54;;;;;;;3.78;2.20;;;;;;;-0.44;76.24;100083.22;5105369;28;20104;-67
2021/12/26 07:38:19;;;;;;;5.38;2.63;;;;;;;-0.47;76.68;100075.44;5099712;28;20054;-68
2021/12/26 07:40:47;;;;;;;7.55;2.55;;;;;;;-0.46;77.04;100084.19;5102068;28;20483;-68
2021/12/26 07:43:14;;;;;;;7.72;3.00;;;;;;;-0.42;77.30;100083.13;5092905;28;20425;-68
2021/12/26 07:45:40;;;;;;;6.00;3.00;;;;;;;-0.49;76.39;100084.31;5098387;28;20039;-68
2021/12/26 07:48:06;;;;;;;7.57;3.85;;;;;;;-0.59;76.71;100070.75;5089981;28;20043;-67
2021/12/26 07:50:32;;;;;;;5.30;3.00;;;;;;;-0.47;77.17;100093.03;5095602;28;20088;-68
2021/12/26 07:53:04;;;;;;;8.05;3.42;;;;;;;-0.50;77.06;100085.25;5092482;28;20028;-67
2021/12/26 07:55:29;;;;;;;6.50;2.88;;;;;;;-0.48;77.75;100084.25;5109167;28;20377;-68
2021/12/26 07:57:55;;;;;;;7.68;2.83;;;;;;;-0.46;77.77;100092.94;5103236;28;20023;-68
2021/12/26 08:00:21;;;;;;;13.25;4.22;;;;;;;-0.51;77.84;100084.41;5100716;28;20055;-68
2021/12/26 08:02:47;;;;;;;5.22;3.10;;;;;;;-0.43;78.20;100098.09;5094945;28;20019;-68
2021/12/26 08:05:13;;;;;;;7.80;3.45;;;;;;;-0.46;77.85;100092.94;5103207;28;20511;-68
2021/12/26 08:07:39;;;;;;;7.25;3.53;;;;;;;-0.47;77.98;100091.25;5089718;28;20119;-66
2021/12/26 08:10:05;;;;;;;6.47;2.88;;;;;;;-0.46;76.88;100095.59;5097792;28;20806;-68
2021/12/26 08:12:31;;;;;;;6.60;3.17;;;;;;;-0.43;76.83;100102.47;5097815;28;20044;-67
2021/12/26 08:14:56;;;;;;;6.07;2.97;;;;;;;-0.47;76.95;100090.38;5093996;28;20032;-69
2021/12/26 08:17:23;;;;;;;7.68;3.42;;;;;;;-0.50;76.40;100085.25;5099933;28;20118;-67
2021/12/26 08:19:49;;;;;;;5.45;2.90;;;;;;;-0.40;76.20;100091.81;5091986;28;20442;-67
2021/12/26 08:22:14;;;;;;;6.43;3.35;;;;;;;-0.44;75.96;100091.13;5097619;28;20047;-69
2021/12/26 08:24:40;;;;;;;4.22;2.55;;;;;;;-0.39;75.03;100090.88;5102146;28;20119;-68
2021/12/26 08:27:05;;;;;;;6.20;2.97;;;;;;;-0.31;74.60;100101.91;5093428;28;20071;-67
2021/12/26 08:29:31;;;;;;;7.93;3.13;;;;;;;-0.37;73.80;100086.41;5090626;28;20036;-67
2021/12/26 08:31:59;;;;;;;10.00;3.10;;;;;;;-0.32;74.10;100094.94;5102672;27;20539;-68
2021/12/26 08:34:24;;;;;;;4.88;2.80;;;;;;;-0.25;73.40;100099.00;5097478;28;20057;-68
2021/12/26 08:37:00;;;;;;;7.15;3.40;;;;;;;-0.43;73.35;100070.88;5095050;27;20551;-69
2021/12/26 08:39:27;;;;;;;5.38;2.58;;;;;;;-0.27;73.02;100090.28;5095204;28;20058;-67
2021/12/26 08:41:52;;;;;;;8.70;3.00;;;;;;;-0.23;72.27;100097.13;5094566;28;20134;-66
2021/12/26 08:44:19;;;;;;;7.65;3.13;;;;;;;-0.19;72.02;100098.72;5100548;28;20398;-67
2021/12/26 08:46:45;;;;;;;7.43;3.53;;;;;;;-0.14;72.10;100094.06;5099348;27;20028;-68
2021/12/26 08:49:11;;;;;;;9.63;3.30;;;;;;;-0.10;72.58;100096.47;5098660;28;20110;-67
2021/12/26 08:51:37;;;;;;;7.53;3.08;;;;;;;-0.05;71.75;100089.22;5088820;28;20134;-68
2021/12/26 08:54:04;;;;;;;7.20;3.45;;;;;;;-0.02;71.49;100099.59;5099973;28;20559;-67
2021/12/26 08:56:30;;;;;;;6.03;2.92;;;;;;;0.03;70.86;100099.34;5097993;28;20110;-66
2021/12/26 08:58:55;;;;;;;6.20;2.80;;;;;;;0.09;71.22;100096.44;5102724;28;20454;-66
2021/12/26 09:01:21;;;;;;;8.45;3.03;;;;;;;0.12;71.00;100100.72;5094717;28;20036;-68
2021/12/26 09:03:46;;;;;;;4.65;2.75;;;;;;;0.11;70.75;100093.72;5093128;28;20118;-68
2021/12/26 09:06:12;;;;;;;5.38;2.20;;;;;;;0.03;70.58;100077.44;5097383;28;20121;-68
2021/12/26 09:08:38;;;;;;;6.95;2.60;;;;;;;0.12;69.91;100083.09;5088730;28;20962;-69
2021/12/26 09:11:03;;;;;;;5.63;2.50;;;;;;;0.17;69.62;100075.84;5093984;28;20032;-68
2021/12/26 09:13:29;;;;;;;5.97;3.15;;;;;;;0.20;70.00;100078.31;5090087;28;20044;-68
2021/12/26 09:15:55;;;;;;;6.30;3.00;;;;;;;0.23;69.30;100082.56;5092620;28;20024;-68
2021/12/26 09:18:21;;;;;;;9.73;3.47;;;;;;;0.25;69.43;100086.00;5089501;28;20399;-68
2021/12/26 09:20:47;;;;;;;6.15;3.50;;;;;;;0.28;68.59;100084.06;5095075;28;20039;-68
2021/12/26 09:23:12;;;;;;;9.43;3.78;;;;;;;0.32;68.17;100074.22;5095474;28;20055;-68
2021/12/26 09:25:38;;;;;;;10.45;3.92;;;;;;;0.42;67.65;100080.72;5097893;28;20019;-69
2021/12/26 09:28:04;;;;;;;8.48;4.00;;;;;;;0.53;67.36;100081.03;5095928;27;20122;-68
2021/12/26 09:30:30;;;;;;;6.30;3.53;;;;;;;0.61;66.56;100078.88;5097568;28;20107;-68
2021/12/26 09:32:56;;;;;;;6.10;3.60;;;;;;;0.63;65.90;100054.09;5095274;28;20026;-68
2021/12/26 09:35:21;;;;;;;7.63;3.97;;;;;;;0.76;66.40;100063.09;5091686;28;20047;-68
2021/12/26 09:37:47;;;;;;;6.85;3.10;;;;;;;0.83;66.06;100059.19;5103486;28;20027;-67
2021/12/26 09:40:15;;;;;;;5.88;2.88;;;;;;;0.88;64.14;100054.53;5095871;28;20050;-70
2021/12/26 09:42:42;;;;;;;8.23;3.45;;;;;;;0.92;62.96;100068.41;5093972;28;20466;-67
2021/12/26 09:45:09;;;;;;;7.03;3.40;;;;;;;0.98;62.65;100068.09;5090029;28;20365;-68
2021/12/26 09:47:36;;;;;;;10.52;5.05;;;;;;;1.06;62.87;100071.19;5096774;28;20027;-68
2021/12/26 09:50:03;;;;;;;9.23;4.32;;;;;;;1.11;62.68;100069.16;5096608;28;20032;-68
2021/12/26 09:52:28;;;;;;;11.82;4.50;;;;;;;1.09;61.94;100058.66;5110397;27;20453;-68
2021/12/26 09:54:54;;;;;;;8.20;4.78;;;;;;;1.19;59.83;100066.97;5097035;28;20044;-66
2021/12/26 09:57:19;;;;;;;8.15;3.80;;;;;;;1.18;58.29;100057.31;5091605;28;20486;-70
2021/12/26 09:59:48;;;;;;;7.47;3.70;;;;;;;1.18;55.55;100065.22;5094298;28;20136;-67
2021/12/26 10:02:15;;;;;;;6.03;3.63;;;;;;;1.17;54.82;100045.91;5100137;28;20490;-67
2021/12/26 10:04:42;;;;;;;6.65;3.40;;;;;;;1.26;53.91;100057.78;5099203;28;20020;-67
2021/12/26 10:07:14;;;;;;;8.77;3.75;;;;;;;1.26;53.93;100055.97;5096540;28;20546;-69
2021/12/26 10:09:44;;;;;;;9.05;4.13;;;;;;;1.38;54.91;100057.06;5091216;28;20020;-68
2021/12/26 10:12:13;;;;;;;8.43;4.10;;;;;;;1.39;53.86;100049.06;5089845;28;20040;-67
2021/12/26 10:14:40;;;;;;;9.57;4.32;;;;;;;1.39;53.18;100046.44;5096352;27;20028;-68
2021/12/26 10:17:23;;;;;;;11.60;4.00;;;;;;;1.44;52.45;100062.91;5097097;27;20035;-67
2021/12/26 10:19:50;;;;;;;7.22;3.90;;;;;;;1.48;52.09;100066.22;5091352;28;20106;-68
2021/12/26 10:22:21;;;;;;;9.95;3.60;;;;;;;1.50;52.28;100065.22;5094657;28;20584;-67
2021/12/26 10:24:51;;;;;;;8.50;4.03;;;;;;;1.53;51.67;100061.53;5095721;28;20015;-68
2021/12/26 10:27:22;;;;;;;8.75;3.50;;;;;;;1.59;50.83;100053.28;5089449;28;20032;-68
2021/12/26 10:29:54;;;;;;;9.13;3.65;;;;;;;1.59;50.57;100040.06;5099207;28;20463;-68
2021/12/26 10:32:25;;;;;;;7.30;3.58;;;;;;;1.67;50.85;100057.19;5099579;27;20046;-67
2021/12/26 10:34:54;;;;;;;9.77;3.78;;;;;;;1.72;51.46;100068.38;5096414;28;20032;-68
2021/12/26 10:37:25;;;;;;;8.52;3.97;;;;;;;1.76;50.61;100066.38;5089919;28;20081;-65
2021/12/26 10:39:54;;;;;;;7.53;3.15;;;;;;;1.79;49.70;100053.00;5094523;28;20038;-68
2021/12/26 10:42:33;;;;;;;6.10;2.45;;;;;;;1.83;49.17;100047.47;5097961;27;20035;-69
2021/12/26 10:45:03;;;;;;;6.32;2.83;;;;;;;1.88;48.09;100050.72;5090491;28;20106;-69
2021/12/26 10:47:31;;;;;;;5.95;2.78;;;;;;;1.87;48.70;100034.94;5111146;27;20529;-68
2021/12/26 10:50:03;;;;;;;6.30;3.22;;;;;;;1.93;47.67;100046.00;5108566;28;20020;-68
2021/12/26 10:52:29;;;;;;;6.78;2.38;;;;;;;1.97;47.35;100036.09;5099609;27;20115;-68
2021/12/26 10:55:00;;;;;;;6.43;2.60;;;;;;;1.88;47.99;100018.97;5100319;28;20103;-67
2021/12/26 10:57:36;;;;;;;10.15;3.13;;;;;;;2.06;48.52;100035.56;5097975;28;20051;-68
2021/12/26 11:00:16;;;;;;;3.40;2.30;;;;;;;2.09;47.89;100049.47;5102951;27;20032;-68
2021/12/26 11:03:05;;;;;;;3.00;1.70;;;;;;;2.06;47.40;100052.28;5106877;27;20039;-68
2021/12/26 11:05:38;;;;;;;3.58;1.70;;;;;;;2.10;46.81;100045.03;5098662;28;20492;-68
2021/12/26 11:08:12;;;;;;;3.95;1.70;;;;;;;2.16;47.39;100042.03;5106736;27;20043;-68
2021/12/26 11:10:44;;;;;;;3.50;1.83;;;;;;;2.25;47.14;100046.78;5110280;27;20054;-71
2021/12/26 11:13:23;;;;;;;2.47;1.50;;;;;;;2.25;47.28;100041.47;5106832;27;20043;-68
2021/12/26 11:15:50;;;;;;;3.55;1.88;;;;;;;2.29;47.14;100049.16;5104737;27;20050;-68
2021/12/26 11:18:17;;;;;;;4.13;2.50;;;;;;;2.31;46.72;100039.34;5098143;28;20039;-69
2021/12/26 11:20:47;;;;;;;5.35;2.25;;;;;;;2.38;47.25;100043.34;5102071;28;20114;-70
2021/12/26 11:23:19;;;;;;;6.00;2.15;;;;;;;2.43;47.16;100046.53;5106006;27;20073;-70
2021/12/26 11:25:56;;;;;;;4.93;2.10;;;;;;;2.49;47.28;100042.72;5104718;27;20427;-71
2021/12/26 11:28:28;;;;;;;5.22;1.95;;;;;;;2.55;46.64;100050.28;5103446;27;20676;-70
2021/12/26 11:31:06;;;;;;;3.63;2.03;;;;;;;2.56;47.09;100030.81;5097627;28;20032;-70
2021/12/26 11:33:32;;;;;;;7.28;2.53;;;;;;;2.68;46.83;100042.44;5103813;27;20134;-70
2021/12/26 11:36:03;;;;;;;4.63;1.98;;;;;;;2.72;46.43;100031.59;5103353;28;20099;-70